Time;durP1;ratioP1;P1;durP2;ratioP2;P2;SDS_P1;SDS_P2;PMS_P1;PMS_P2;Temp;Humidity;BMP_temperature;BMP_pressure;BME280_temperature;BME280_humidity;BME280_pressure;Samples;Min_cycle;Max_cycle;Signal;HPM_P1;HPM_P2
2022/01/26 00:06:34;;;;;;;45.73;22.07;;;4.70;99.90;;;;;;4958553;28;20354;-61
2022/01/26 00:09:01;;;;;;;58.27;24.70;;;4.70;99.90;;;;;;4954752;28;23511;-60
2022/01/26 00:11:31;;;;;;;55.00;24.27;;;4.70;99.90;;;;;;4965388;28;20408;-61
2022/01/26 00:13:59;;;;;;;48.53;22.90;;;4.70;99.90;;;;;;4972066;28;20210;-60
2022/01/26 00:16:35;;;;;;;55.53;23.17;;;4.70;99.90;;;;;;4956710;28;20211;-60
2022/01/26 00:19:04;;;;;;;56.40;22.67;;;4.70;99.90;;;;;;4948856;28;20215;-61
2022/01/26 00:21:35;;;;;;;50.57;22.80;;;4.70;99.90;;;;;;4958860;28;20261;-60
2022/01/26 00:27:23;;;;;;;61.33;22.77;;;4.70;99.90;;;;;;4958564;28;20211;-61
2022/01/26 00:30:00;;;;;;;54.23;22.47;;;4.70;99.90;;;;;;4962306;28;20238;-60
2022/01/26 00:38:36;;;;;;;55.50;22.13;;;4.70;99.90;;;;;;4928877;28;20209;-60
2022/01/26 00:41:06;;;;;;;49.13;22.37;;;4.70;99.90;;;;;;4906298;28;20684;-61
2022/01/26 00:43:34;;;;;;;44.97;20.87;;;4.60;99.90;;;;;;4919868;28;20210;-61
2022/01/26 00:46:03;;;;;;;48.67;21.57;;;4.60;99.90;;;;;;4957015;28;20204;-60
2022/01/26 00:48:33;;;;;;;49.50;21.63;;;4.70;99.90;;;;;;4960001;28;20314;-60
2022/01/26 00:51:04;;;;;;;50.73;22.03;;;4.60;99.90;;;;;;4957156;28;20215;-61
2022/01/26 00:53:35;;;;;;;46.20;20.27;;;4.60;99.90;;;;;;4954023;28;20294;-61
2022/01/26 00:56:03;;;;;;;52.87;22.47;;;4.60;99.90;;;;;;4932763;28;20779;-60
2022/01/26 00:58:31;;;;;;;50.23;21.30;;;4.60;99.90;;;;;;4960565;28;20216;-62
2022/01/26 01:00:59;;;;;;;53.33;20.00;;;4.60;99.90;;;;;;4954876;28;20253;-60
2022/01/26 01:03:27;;;;;;;50.00;20.93;;;4.70;99.90;;;;;;4953914;28;20338;-61
2022/01/26 01:06:00;;;;;;;48.70;20.77;;;4.70;99.90;;;;;;4950177;28;20228;-60
2022/01/26 01:08:27;;;;;;;50.87;21.43;;;4.70;99.90;;;;;;4966991;28;20424;-62
2022/01/26 01:10:56;;;;;;;49.30;21.30;;;4.60;99.90;;;;;;4940392;28;20584;-60
2022/01/26 01:13:32;;;;;;;48.40;21.63;;;4.60;99.90;;;;;;4944183;28;20762;-60
2022/01/26 01:16:00;;;;;;;49.23;20.23;;;4.60;99.90;;;;;;4974413;28;20324;-61
2022/01/26 01:18:34;;;;;;;48.17;20.13;;;4.60;99.90;;;;;;4934113;28;20235;-60
2022/01/26 01:24:13;;;;;;;47.77;19.30;;;4.60;99.90;;;;;;4964533;28;20214;-61
2022/01/26 01:27:01;;;;;;;44.07;20.67;;;4.60;99.90;;;;;;4948627;28;20216;-61
2022/01/26 01:29:32;;;;;;;42.47;19.70;;;4.60;99.90;;;;;;4964125;28;20261;-60
2022/01/26 01:32:01;;;;;;;41.30;18.87;;;4.60;99.90;;;;;;4973948;28;20211;-60
2022/01/26 01:34:36;;;;;;;40.17;18.20;;;4.60;99.90;;;;;;4958293;28;20778;-60
2022/01/26 01:37:08;;;;;;;43.47;19.40;;;4.60;99.90;;;;;;4953153;28;20750;-61
2022/01/26 01:39:36;;;;;;;43.27;18.77;;;4.60;99.90;;;;;;4947745;28;20203;-60
2022/01/26 01:42:08;;;;;;;43.13;20.00;;;4.60;99.90;;;;;;4934278;28;20262;-60
2022/01/26 01:44:36;;;;;;;42.37;17.90;;;4.50;99.90;;;;;;4965150;28;20199;-60
2022/01/26 01:47:05;;;;;;;48.73;19.07;;;4.50;99.90;;;;;;4968318;28;20314;-60
2022/01/26 01:49:32;;;;;;;43.23;17.23;;;4.50;99.90;;;;;;4956603;28;20736;-60
2022/01/26 01:52:02;;;;;;;40.47;18.13;;;4.50;99.90;;;;;;4949167;28;20204;-60
2022/01/26 01:54:32;;;;;;;42.00;18.47;;;4.50;99.90;;;;;;4960076;28;20239;-62
2022/01/26 01:56:59;;;;;;;43.70;18.33;;;4.60;99.90;;;;;;4968861;28;20204;-60
2022/01/26 01:59:28;;;;;;;39.93;16.93;;;4.50;99.90;;;;;;4947608;28;20247;-60
2022/01/26 02:01:56;;;;;;;41.10;18.03;;;4.50;99.90;;;;;;4963360;28;20203;-60
2022/01/26 02:04:23;;;;;;;42.03;17.03;;;4.50;99.90;;;;;;4962397;28;20381;-60
2022/01/26 02:06:50;;;;;;;37.13;15.47;;;4.40;99.90;;;;;;4959046;28;20735;-62
2022/01/26 02:09:18;;;;;;;41.40;16.80;;;4.50;99.90;;;;;;4961367;28;20929;-60
2022/01/26 02:11:48;;;;;;;35.70;16.20;;;4.50;99.90;;;;;;4974738;28;20329;-61
2022/01/26 02:14:22;;;;;;;39.07;16.10;;;4.50;99.90;;;;;;4937623;28;20236;-61
2022/01/26 02:16:54;;;;;;;32.43;15.73;;;4.50;99.90;;;;;;4972028;28;20223;-60
2022/01/26 02:50:15;;;;;;;34.53;14.70;;;4.50;99.90;;;;;;4948172;28;20234;-61
2022/01/26 02:55:36;;;;;;;29.17;13.87;;;4.40;99.90;;;;;;4958109;28;20227;-60
2022/01/26 03:00:54;;;;;;;28.17;12.50;;;4.50;99.90;;;;;;4962606;28;20294;-60
2022/01/26 03:03:25;;;;;;;29.70;12.87;;;4.50;99.90;;;;;;4943750;28;21183;-61
2022/01/26 03:05:57;;;;;;;36.30;15.13;;;4.50;99.90;;;;;;4959636;28;20227;-60
2022/01/26 03:08:31;;;;;;;32.37;13.80;;;4.40;99.90;;;;;;4949519;28;26557;-61
2022/01/26 03:11:06;;;;;;;29.00;13.37;;;4.40;99.90;;;;;;4970439;28;20232;-60
2022/01/26 03:13:34;;;;;;;31.23;13.77;;;4.40;99.90;;;;;;4955415;28;20324;-61
2022/01/26 03:16:08;;;;;;;29.73;14.23;;;4.40;99.90;;;;;;4974107;28;20238;-60
2022/01/26 03:19:03;;;;;;;31.77;13.33;;;4.40;99.90;;;;;;4933283;28;20223;-60
2022/01/26 03:21:37;;;;;;;28.03;13.03;;;4.40;99.90;;;;;;4959275;28;20270;-61
2022/01/26 03:29:57;;;;;;;32.97;13.80;;;4.40;99.90;;;;;;4942739;28;20232;-61
2022/01/26 03:35:27;;;;;;;30.33;13.87;;;4.40;99.90;;;;;;4938266;28;20215;-62
2022/01/26 03:37:55;;;;;;;29.63;13.27;;;4.40;99.90;;;;;;4945206;28;20989;-62
2022/01/26 03:40:30;;;;;;;25.33;12.90;;;4.30;99.90;;;;;;4968900;28;20223;-62
2022/01/26 03:42:59;;;;;;;32.43;12.83;;;4.40;99.90;;;;;;4962100;28;20230;-62
2022/01/26 03:45:26;;;;;;;24.70;12.50;;;4.30;99.90;;;;;;4960602;28;20310;-62
2022/01/26 03:47:55;;;;;;;29.40;13.03;;;4.40;99.90;;;;;;4947875;28;20231;-60
2022/01/26 03:50:22;;;;;;;26.83;12.70;;;4.40;99.90;;;;;;4952046;28;20266;-60
2022/01/26 03:52:49;;;;;;;30.73;12.07;;;4.30;99.90;;;;;;4958366;28;20645;-60
2022/01/26 03:55:16;;;;;;;29.20;12.20;;;4.40;99.90;;;;;;4963995;28;20704;-60
2022/01/26 03:57:43;;;;;;;22.93;11.53;;;4.40;99.90;;;;;;4965446;28;20228;-60
2022/01/26 04:00:13;;;;;;;28.07;12.70;;;4.30;99.90;;;;;;4965222;28;20274;-60
2022/01/26 04:02:40;;;;;;;29.80;12.30;;;4.40;99.90;;;;;;4955799;28;22203;-60
2022/01/26 04:05:11;;;;;;;31.50;12.63;;;4.30;99.90;;;;;;4959095;28;20717;-60
2022/01/26 04:07:38;;;;;;;26.93;11.90;;;4.30;99.90;;;;;;4935721;28;20241;-61
2022/01/26 04:10:15;;;;;;;30.60;13.20;;;4.30;99.90;;;;;;4973569;28;20231;-60
2022/01/26 04:12:42;;;;;;;30.07;12.30;;;4.30;99.90;;;;;;4944871;28;20234;-60
2022/01/26 04:15:20;;;;;;;24.57;11.90;;;4.30;99.90;;;;;;4971764;28;20929;-60
2022/01/26 04:17:48;;;;;;;26.93;12.30;;;4.30;99.90;;;;;;4969285;28;20230;-60
2022/01/26 04:20:15;;;;;;;28.10;12.57;;;4.30;99.90;;;;;;4941047;28;20227;-60
2022/01/26 04:22:51;;;;;;;27.13;13.33;;;4.30;99.90;;;;;;4948331;28;20280;-60
2022/01/26 04:25:22;;;;;;;28.17;13.00;;;4.30;99.90;;;;;;4953003;28;20778;-60
2022/01/26 04:27:53;;;;;;;28.17;12.27;;;4.30;99.90;;;;;;4970225;28;20223;-60
2022/01/26 04:30:22;;;;;;;32.83;13.67;;;4.30;99.90;;;;;;4956643;28;20231;-61
2022/01/26 04:32:49;;;;;;;24.87;12.40;;;4.30;99.90;;;;;;4970284;28;20215;-61
2022/01/26 04:35:16;;;;;;;27.47;12.33;;;4.30;99.90;;;;;;4951540;28;20234;-61
2022/01/26 04:38:07;;;;;;;27.97;11.53;;;4.30;99.90;;;;;;4948725;28;20234;-61
2022/01/26 04:40:39;;;;;;;32.10;12.33;;;4.30;99.90;;;;;;4955838;28;20220;-60
2022/01/26 04:43:14;;;;;;;30.10;13.23;;;4.20;99.90;;;;;;4953881;28;20227;-61
2022/01/26 04:45:42;;;;;;;28.53;12.77;;;4.20;99.90;;;;;;4953576;28;20742;-61
2022/01/26 04:48:10;;;;;;;24.80;12.73;;;4.20;99.90;;;;;;4949896;28;20604;-61
2022/01/26 04:50:37;;;;;;;31.97;13.43;;;4.20;99.90;;;;;;4950722;28;20794;-60
2022/01/26 04:53:05;;;;;;;26.53;12.17;;;4.20;99.90;;;;;;4937060;28;21129;-61
2022/01/26 04:55:32;;;;;;;31.37;12.67;;;4.20;99.90;;;;;;4957553;28;20320;-60
2022/01/26 04:58:00;;;;;;;30.03;12.80;;;4.20;99.90;;;;;;4943257;28;20219;-60
2022/01/26 05:00:28;;;;;;;32.17;12.73;;;4.20;99.90;;;;;;4966121;28;20229;-60
2022/01/26 05:02:56;;;;;;;33.30;12.60;;;4.20;99.90;;;;;;4962789;28;20294;-62
2022/01/26 05:05:24;;;;;;;26.37;12.27;;;4.20;99.90;;;;;;4924105;28;20306;-60
2022/01/26 05:07:50;;;;;;;32.20;13.10;;;4.20;99.90;;;;;;4929696;28;20261;-61
2022/01/26 05:10:18;;;;;;;26.90;12.53;;;4.20;99.90;;;;;;4940484;28;20306;-60
2022/01/26 05:12:45;;;;;;;26.63;12.80;;;4.20;99.90;;;;;;4959986;28;20227;-60
2022/01/26 05:15:12;;;;;;;32.03;13.27;;;4.20;99.90;;;;;;4963861;28;20222;-61
2022/01/26 05:17:40;;;;;;;26.00;12.37;;;4.20;99.90;;;;;;4974885;28;21607;-60
2022/01/26 05:20:10;;;;;;;27.03;12.20;;;4.20;99.90;;;;;;4964698;28;20208;-61
2022/01/26 05:22:39;;;;;;;27.13;12.70;;;4.20;99.90;;;;;;4947995;28;20216;-60
2022/01/26 05:25:06;;;;;;;28.00;12.77;;;4.10;99.90;;;;;;4944970;28;20299;-60
2022/01/26 05:27:33;;;;;;;32.33;13.43;;;4.10;99.90;;;;;;4971393;28;20228;-60
2022/01/26 05:30:00;;;;;;;32.40;13.03;;;4.10;99.90;;;;;;4942444;28;21045;-60
2022/01/26 05:32:27;;;;;;;30.17;13.50;;;4.10;99.90;;;;;;4963872;28;20204;-60
2022/01/26 05:34:54;;;;;;;31.23;13.83;;;4.10;99.90;;;;;;4932996;28;20217;-60
2022/01/26 05:37:23;;;;;;;32.60;13.37;;;4.10;99.90;;;;;;4951009;28;20707;-60
2022/01/26 05:39:50;;;;;;;28.17;13.43;;;4.10;99.90;;;;;;4961446;28;20223;-60
2022/01/26 05:42:17;;;;;;;33.27;14.30;;;4.20;99.90;;;;;;4956804;28;20311;-60
2022/01/26 05:44:44;;;;;;;28.07;12.60;;;4.10;99.90;;;;;;4961147;28;20576;-60
2022/01/26 05:47:16;;;;;;;31.23;13.13;;;4.10;99.90;;;;;;4959085;28;20303;-60
2022/01/26 05:49:43;;;;;;;32.33;13.67;;;4.00;99.90;;;;;;4957081;28;20313;-60
2022/01/26 05:52:11;;;;;;;31.50;14.63;;;4.00;99.90;;;;;;4956289;28;20215;-60
2022/01/26 05:54:39;;;;;;;33.37;13.90;;;4.10;99.90;;;;;;4943612;28;20317;-60
2022/01/26 05:57:07;;;;;;;30.13;13.83;;;4.00;99.90;;;;;;4942543;28;20676;-60
2022/01/26 05:59:34;;;;;;;35.07;14.03;;;4.00;99.90;;;;;;4964213;28;20203;-60
2022/01/26 06:02:01;;;;;;;34.37;13.63;;;4.00;99.90;;;;;;4964222;28;20301;-61
2022/01/26 06:04:28;;;;;;;30.17;13.60;;;4.00;99.90;;;;;;4963144;28;20881;-60
2022/01/26 06:06:57;;;;;;;33.00;14.73;;;4.00;99.90;;;;;;4951459;28;20232;-60
2022/01/26 06:09:24;;;;;;;34.13;12.63;;;4.00;99.90;;;;;;4946561;28;20224;-61
2022/01/26 06:11:53;;;;;;;35.40;13.37;;;4.00;99.90;;;;;;4938927;28;20258;-61
2022/01/26 06:14:20;;;;;;;28.80;13.63;;;4.00;99.90;;;;;;4945470;28;20257;-60
2022/01/26 06:16:47;;;;;;;31.83;13.73;;;4.00;99.90;;;;;;4960160;28;20228;-61
2022/01/26 06:19:14;;;;;;;38.60;14.47;;;4.00;99.90;;;;;;4961090;28;20226;-60
2022/01/26 06:21:41;;;;;;;36.20;14.57;;;3.90;99.90;;;;;;4951517;28;20576;-60
2022/01/26 06:24:08;;;;;;;34.70;14.60;;;3.90;99.90;;;;;;4972535;28;20385;-61
2022/01/26 06:26:35;;;;;;;39.20;14.73;;;3.90;99.90;;;;;;4943669;28;20667;-60
2022/01/26 06:29:04;;;;;;;33.50;14.07;;;3.90;99.90;;;;;;4963274;28;20290;-61
2022/01/26 06:31:31;;;;;;;38.53;14.47;;;3.90;99.90;;;;;;4958954;28;20381;-60
2022/01/26 06:34:01;;;;;;;35.20;13.97;;;3.80;99.90;;;;;;4966206;28;20663;-60
2022/01/26 06:36:28;;;;;;;32.63;13.40;;;3.70;99.90;;;;;;4971655;28;20207;-60
2022/01/26 06:38:55;;;;;;;35.03;14.80;;;3.80;99.90;;;;;;4971870;28;20310;-60
2022/01/26 06:41:26;;;;;;;30.33;13.63;;;3.80;99.90;;;;;;4934525;28;20720;-60
2022/01/26 06:44:01;;;;;;;32.07;12.57;;;3.80;99.90;;;;;;4975039;28;20198;-60
2022/01/26 06:46:37;;;;;;;29.90;13.53;;;3.80;99.90;;;;;;4948304;28;20789;-60
2022/01/26 06:51:45;;;;;;;30.83;14.60;;;3.80;99.90;;;;;;4968027;28;20284;-61
2022/01/26 06:54:12;;;;;;;30.10;14.57;;;3.70;99.90;;;;;;4961713;28;20212;-61
2022/01/26 06:56:39;;;;;;;36.73;14.70;;;3.70;99.90;;;;;;4952298;28;20226;-61
2022/01/26 06:59:06;;;;;;;33.60;14.10;;;3.70;99.90;;;;;;4968781;28;20204;-61
2022/01/26 07:01:34;;;;;;;31.90;13.70;;;3.70;99.90;;;;;;4954920;28;20225;-61
2022/01/26 07:04:01;;;;;;;34.87;15.40;;;3.70;99.90;;;;;;4961052;28;20208;-59
2022/01/26 07:06:28;;;;;;;36.97;14.60;;;3.70;99.90;;;;;;4975950;28;20207;-60
2022/01/26 07:08:55;;;;;;;31.77;13.53;;;3.70;99.90;;;;;;4957104;28;20679;-60
2022/01/26 07:11:22;;;;;;;39.50;14.87;;;3.60;99.90;;;;;;4951151;28;20712;-60
2022/01/26 07:13:52;;;;;;;36.20;14.00;;;3.70;99.90;;;;;;4971540;28;20294;-60
2022/01/26 07:21:49;;;;;;;37.77;14.07;;;3.60;99.90;;;;;;4969640;28;20245;-60
2022/01/26 07:24:16;;;;;;;29.63;13.03;;;3.60;99.90;;;;;;4955642;28;20281;-60
2022/01/26 07:26:45;;;;;;;33.67;14.97;;;3.60;99.90;;;;;;4949623;28;20238;-60
2022/01/26 07:29:15;;;;;;;36.30;13.73;;;3.70;99.90;;;;;;4978185;28;20245;-60
2022/01/26 07:31:42;;;;;;;34.07;13.57;;;3.70;99.90;;;;;;4975489;28;20727;-60
2022/01/26 07:34:13;;;;;;;36.77;14.40;;;3.70;99.90;;;;;;4976656;28;20314;-60
2022/01/26 07:36:40;;;;;;;39.67;14.53;;;3.70;99.90;;;;;;4964193;28;20207;-60
2022/01/26 07:39:12;;;;;;;34.70;13.43;;;3.70;99.90;;;;;;4976632;28;20333;-59
2022/01/26 07:41:38;;;;;;;36.30;13.70;;;3.70;99.90;;;;;;4975175;28;20625;-60
2022/01/26 07:44:06;;;;;;;32.23;13.23;;;3.60;99.90;;;;;;4948136;28;20334;-60
2022/01/26 07:46:33;;;;;;;35.40;12.70;;;3.70;99.90;;;;;;4972799;28;20311;-60
2022/01/26 07:49:00;;;;;;;32.07;13.67;;;3.70;99.90;;;;;;4969005;28;20300;-60
2022/01/26 07:51:29;;;;;;;32.33;12.73;;;3.60;99.90;;;;;;4970140;28;20247;-59
2022/01/26 07:53:55;;;;;;;34.70;13.37;;;3.70;99.90;;;;;;4959034;28;20214;-59
2022/01/26 07:56:22;;;;;;;40.50;14.37;;;3.70;99.90;;;;;;4966472;28;20866;-59
2022/01/26 07:58:49;;;;;;;35.93;13.90;;;3.60;99.90;;;;;;4950320;28;21079;-59
2022/01/26 08:01:16;;;;;;;33.57;13.23;;;3.60;99.90;;;;;;4974378;28;20202;-59
2022/01/26 08:03:43;;;;;;;28.73;13.00;;;3.70;99.90;;;;;;4972716;28;21073;-59
2022/01/26 08:06:15;;;;;;;43.63;14.80;;;3.60;99.90;;;;;;4964181;28;20229;-60
2022/01/26 08:08:43;;;;;;;32.77;13.67;;;3.60;99.90;;;;;;4968820;28;20309;-60
2022/01/26 08:11:11;;;;;;;32.97;14.77;;;3.50;99.90;;;;;;4973979;28;20745;-60
2022/01/26 08:13:38;;;;;;;28.80;12.20;;;3.60;99.90;;;;;;4970805;28;20729;-60
2022/01/26 08:16:05;;;;;;;33.60;13.27;;;3.60;99.90;;;;;;4954247;28;20216;-60
2022/01/26 08:18:32;;;;;;;33.57;14.27;;;3.60;99.90;;;;;;4969232;28;20752;-60
2022/01/26 08:21:04;;;;;;;28.33;11.97;;;3.60;99.90;;;;;;4946397;28;20204;-60
2022/01/26 08:23:31;;;;;;;36.73;13.70;;;3.60;99.90;;;;;;4972064;28;20319;-60
2022/01/26 08:26:00;;;;;;;32.90;13.23;;;3.60;99.90;;;;;;4971317;28;20210;-60
2022/01/26 08:28:33;;;;;;;34.33;14.67;;;3.60;99.90;;;;;;4960951;28;20215;-60
2022/01/26 08:31:00;;;;;;;35.83;14.20;;;3.50;99.90;;;;;;4957576;28;20237;-61
2022/01/26 08:33:27;;;;;;;33.37;13.80;;;3.60;99.90;;;;;;4970647;28;20209;-60
2022/01/26 08:35:54;;;;;;;30.03;13.37;;;3.50;99.90;;;;;;4961533;28;20210;-60
2022/01/26 08:38:21;;;;;;;32.37;13.87;;;3.50;99.90;;;;;;4970323;28;20586;-60
2022/01/26 08:40:49;;;;;;;33.30;13.90;;;3.50;99.90;;;;;;4967122;28;20617;-60
2022/01/26 08:43:17;;;;;;;36.77;14.67;;;3.50;99.90;;;;;;4975439;28;20237;-61
2022/01/26 08:45:45;;;;;;;33.07;13.90;;;3.50;99.90;;;;;;4955503;28;20950;-60
2022/01/26 08:48:12;;;;;;;40.90;14.90;;;3.50;99.90;;;;;;4970839;28;20302;-60
2022/01/26 08:50:39;;;;;;;40.57;14.40;;;3.50;99.90;;;;;;4974819;28;20227;-61
2022/01/26 08:53:06;;;;;;;33.47;14.17;;;3.60;99.90;;;;;;4943983;28;20851;-60
2022/01/26 08:55:35;;;;;;;42.50;15.93;;;3.50;99.90;;;;;;4968969;28;20267;-60
2022/01/26 08:58:02;;;;;;;39.60;16.10;;;3.50;99.90;;;;;;4957605;28;20223;-60
2022/01/26 09:00:30;;;;;;;39.50;16.60;;;3.50;99.90;;;;;;4969625;28;20588;-60
2022/01/26 09:02:57;;;;;;;38.33;14.13;;;3.50;99.90;;;;;;4951237;28;20218;-60
2022/01/26 09:05:24;;;;;;;38.87;15.73;;;3.50;99.90;;;;;;4955248;28;20206;-60
2022/01/26 09:07:56;;;;;;;38.67;15.27;;;3.50;99.90;;;;;;4966218;28;20241;-60
2022/01/26 09:10:26;;;;;;;44.67;16.50;;;3.50;99.90;;;;;;4956944;28;20210;-59
2022/01/26 09:12:53;;;;;;;42.23;15.73;;;3.50;99.90;;;;;;4963583;28;20326;-60
2022/01/26 09:15:26;;;;;;;43.40;16.80;;;3.50;99.90;;;;;;4959208;28;20214;-60
2022/01/26 09:17:55;;;;;;;45.80;16.57;;;3.50;99.90;;;;;;4943085;28;20786;-60
2022/01/26 09:20:22;;;;;;;40.77;16.83;;;3.60;99.90;;;;;;4957252;28;20212;-59
2022/01/26 09:22:49;;;;;;;41.40;17.87;;;3.50;99.90;;;;;;4953708;28;20214;-60
2022/01/26 09:25:16;;;;;;;39.80;16.80;;;3.50;99.90;;;;;;4962797;28;20205;-60
2022/01/26 09:27:43;;;;;;;41.67;17.50;;;3.60;99.90;;;;;;4967512;28;20295;-60
2022/01/26 09:30:11;;;;;;;41.27;17.53;;;3.60;99.90;;;;;;4959388;28;20202;-60
2022/01/26 09:32:39;;;;;;;39.27;17.23;;;3.60;99.90;;;;;;4943385;28;20798;-60
2022/01/26 09:35:09;;;;;;;48.93;17.43;;;3.50;99.90;;;;;;4970751;28;20244;-60
2022/01/26 09:37:37;;;;;;;51.47;18.27;;;3.50;99.90;;;;;;4967722;28;20217;-59
2022/01/26 09:40:05;;;;;;;49.30;18.17;;;3.50;99.90;;;;;;4961729;28;20300;-60
2022/01/26 09:42:34;;;;;;;44.47;18.50;;;3.50;99.90;;;;;;4970566;28;20211;-59
2022/01/26 09:45:01;;;;;;;51.37;17.90;;;3.50;99.90;;;;;;4953737;28;20215;-60
2022/01/26 09:47:28;;;;;;;47.27;18.80;;;3.50;99.90;;;;;;4967020;28;20207;-60
2022/01/26 09:49:55;;;;;;;48.33;18.37;;;3.50;99.90;;;;;;4949532;28;21314;-60
2022/01/26 09:52:31;;;;;;;43.60;19.07;;;3.40;99.90;;;;;;4964105;28;20321;-59
2022/01/26 09:55:00;;;;;;;50.43;19.87;;;3.40;99.90;;;;;;4956617;28;20940;-60
2022/01/26 09:57:28;;;;;;;53.93;20.83;;;3.50;99.90;;;;;;4965733;28;20207;-60
2022/01/26 09:59:55;;;;;;;53.00;20.13;;;3.50;99.90;;;;;;4958129;28;20332;-60
2022/01/26 10:02:24;;;;;;;48.27;18.90;;;3.50;99.90;;;;;;4966798;28;20207;-60
2022/01/26 10:04:58;;;;;;;42.77;18.23;;;3.50;99.90;;;;;;4936206;28;21314;-60
2022/01/26 10:07:30;;;;;;;46.60;18.60;;;3.40;99.90;;;;;;4965328;28;20281;-61
2022/01/26 10:10:07;;;;;;;56.47;20.03;;;3.50;99.90;;;;;;4957083;28;20302;-60
2022/01/26 10:15:31;;;;;;;52.33;20.13;;;3.50;99.90;;;;;;4966250;28;20769;-61
2022/01/26 10:18:08;;;;;;;53.07;18.37;;;3.50;99.90;;;;;;4959497;28;20623;-60
2022/01/26 10:20:49;;;;;;;54.03;19.53;;;3.50;99.90;;;;;;4937570;28;20296;-60
2022/01/26 10:23:19;;;;;;;48.50;19.33;;;3.50;99.90;;;;;;4968850;28;20202;-61
2022/01/26 10:25:48;;;;;;;50.87;19.10;;;3.50;99.90;;;;;;4958425;28;20672;-61
2022/01/26 10:28:16;;;;;;;53.87;20.27;;;3.50;99.90;;;;;;4962981;28;20231;-61
2022/01/26 10:30:49;;;;;;;43.87;18.90;;;3.60;99.90;;;;;;4972331;28;20263;-60
2022/01/26 10:33:19;;;;;;;48.73;19.50;;;3.60;99.90;;;;;;4971241;28;20207;-60
2022/01/26 10:35:47;;;;;;;47.07;18.63;;;3.60;99.90;;;;;;4954497;28;20211;-60
2022/01/26 10:38:15;;;;;;;49.60;18.83;;;3.60;99.90;;;;;;4977808;28;20203;-60
2022/01/26 10:40:43;;;;;;;56.47;19.20;;;3.60;99.90;;;;;;4961358;28;20218;-60
2022/01/26 10:43:13;;;;;;;45.23;18.87;;;3.60;99.90;;;;;;4967466;28;20316;-59
2022/01/26 10:45:55;;;;;;;51.13;20.23;;;3.60;99.90;;;;;;4967423;28;20335;-60
2022/01/26 10:48:31;;;;;;;50.07;19.07;;;3.60;99.90;;;;;;4967747;28;20215;-60
2022/01/26 10:53:44;;;;;;;53.77;20.23;;;3.60;99.90;;;;;;4962881;28;20203;-60
2022/01/26 10:56:12;;;;;;;49.97;19.67;;;3.60;99.90;;;;;;4957135;28;20998;-60
2022/01/26 10:58:40;;;;;;;45.07;19.27;;;3.60;99.90;;;;;;4963675;28;20194;-59
2022/01/26 11:01:07;;;;;;;56.83;20.77;;;3.60;99.90;;;;;;4965872;28;20234;-60
2022/01/26 11:03:34;;;;;;;50.67;20.43;;;3.70;99.90;;;;;;4976030;28;20277;-59
2022/01/26 11:06:03;;;;;;;50.83;19.17;;;3.70;99.90;;;;;;4965421;28;20203;-59
2022/01/26 11:08:31;;;;;;;51.17;19.43;;;3.70;99.90;;;;;;4956766;28;20210;-59
2022/01/26 11:10:59;;;;;;;55.47;21.03;;;3.70;99.90;;;;;;4961349;28;20217;-60
2022/01/26 11:13:29;;;;;;;52.80;20.70;;;3.70;99.90;;;;;;4968420;28;20251;-60
2022/01/26 11:16:08;;;;;;;49.30;18.93;;;3.70;99.90;;;;;;4967227;28;20207;-59
2022/01/26 11:18:46;;;;;;;57.53;20.53;;;3.60;99.90;;;;;;4977291;28;20694;-59
2022/01/26 11:21:29;;;;;;;51.33;19.47;;;3.70;99.90;;;;;;4973687;28;20215;-59
2022/01/26 11:24:10;;;;;;;55.73;22.27;;;3.70;99.90;;;;;;4941294;28;20719;-61
2022/01/26 11:26:41;;;;;;;53.20;20.10;;;3.70;99.90;;;;;;4962394;28;20314;-59
2022/01/26 11:29:18;;;;;;;52.20;19.03;;;3.70;99.90;;;;;;4974345;28;20203;-61
2022/01/26 11:31:46;;;;;;;52.03;19.77;;;3.70;99.90;;;;;;4966646;28;20224;-59
2022/01/26 11:34:16;;;;;;;53.90;19.93;;;3.80;99.90;;;;;;4976049;28;20226;-59
2022/01/26 11:36:43;;;;;;;50.97;20.17;;;3.80;99.90;;;;;;4970382;28;20203;-60
2022/01/26 11:42:30;;;;;;;54.13;20.73;;;3.80;99.90;;;;;;4944818;28;20234;-60
2022/01/26 11:45:09;;;;;;;55.00;19.83;;;3.80;99.90;;;;;;4969213;28;20203;-60
2022/01/26 11:47:39;;;;;;;51.73;19.97;;;3.80;99.90;;;;;;4944862;28;20215;-60
2022/01/26 11:50:14;;;;;;;56.70;21.43;;;3.70;99.90;;;;;;4969670;28;20295;-60
2022/01/26 11:52:45;;;;;;;51.80;21.07;;;3.70;99.90;;;;;;4967150;28;20231;-59
2022/01/26 11:55:30;;;;;;;47.13;21.13;;;3.80;99.90;;;;;;4955759;28;20898;-59
2022/01/26 11:58:07;;;;;;;56.90;21.33;;;3.80;99.90;;;;;;4959808;28;20864;-60
2022/01/26 12:00:42;;;;;;;51.00;20.20;;;3.80;99.90;;;;;;4966682;28;20195;-60
2022/01/26 12:03:30;;;;;;;51.93;20.60;;;3.90;99.90;;;;;;4961630;28;21252;-59
2022/01/26 12:05:58;;;;;;;62.37;22.93;;;3.90;99.90;;;;;;4962812;28;20673;-60
2022/01/26 12:08:35;;;;;;;47.97;20.27;;;3.90;99.90;;;;;;4952529;28;20764;-60
2022/01/26 12:11:03;;;;;;;57.43;21.87;;;3.90;99.90;;;;;;4953008;28;20227;-60
2022/01/26 12:13:32;;;;;;;57.47;20.83;;;3.90;99.90;;;;;;4952918;28;20228;-60
2022/01/26 12:16:07;;;;;;;50.47;20.37;;;3.90;99.90;;;;;;4966256;28;20652;-59
2022/01/26 12:18:40;;;;;;;55.73;21.60;;;3.90;99.90;;;;;;4971120;28;20198;-59
2022/01/26 12:35:46;;;;;;;67.17;23.77;;;4.00;99.90;;;;;;4933070;28;20208;-60
2022/01/26 12:38:21;;;;;;;60.53;23.23;;;4.00;99.90;;;;;;4956148;28;20266;-60
2022/01/26 12:43:38;;;;;;;59.13;23.03;;;4.00;99.90;;;;;;4957555;28;20273;-60
2022/01/26 12:46:06;;;;;;;66.17;24.40;;;4.00;99.90;;;;;;4953631;28;20231;-60
2022/01/26 12:48:37;;;;;;;63.87;21.87;;;4.00;99.90;;;;;;4964123;28;25441;-59
2022/01/26 12:51:06;;;;;;;67.10;24.57;;;4.10;99.90;;;;;;4969465;28;20806;-59
2022/01/26 12:53:35;;;;;;;61.43;25.33;;;4.10;99.90;;;;;;4964406;28;20703;-60
2022/01/26 12:56:04;;;;;;;58.80;24.07;;;4.10;99.90;;;;;;4948991;28;20270;-59
2022/01/26 12:58:34;;;;;;;66.37;23.87;;;4.10;99.90;;;;;;4967476;28;20222;-59
2022/01/26 13:01:05;;;;;;;71.13;24.07;;;4.20;99.90;;;;;;4928896;28;20238;-59
2022/01/26 13:03:35;;;;;;;60.83;24.20;;;4.20;99.90;;;;;;4941128;28;20260;-59
2022/01/26 13:06:11;;;;;;;64.93;24.57;;;4.20;99.90;;;;;;4956329;28;20312;-59
2022/01/26 13:08:46;;;;;;;58.60;23.83;;;4.20;99.90;;;;;;4951488;28;21274;-60
2022/01/26 13:11:14;;;;;;;65.10;24.60;;;4.20;99.90;;;;;;4964389;28;20219;-60
2022/01/26 13:13:41;;;;;;;62.37;25.23;;;4.20;99.90;;;;;;4950810;28;20234;-60
2022/01/26 13:16:18;;;;;;;61.20;24.00;;;4.20;99.90;;;;;;4946371;28;20232;-60
2022/01/26 13:22:05;;;;;;;63.57;25.17;;;4.20;99.90;;;;;;4957338;28;20204;-60
2022/01/26 13:24:53;;;;;;;60.93;24.30;;;4.20;99.90;;;;;;4940069;28;20234;-61
2022/01/26 13:27:33;;;;;;;63.67;25.23;;;4.30;99.90;;;;;;4961526;28;20460;-60
2022/01/26 13:30:21;;;;;;;60.60;24.13;;;4.20;99.90;;;;;;4959273;28;20213;-60
2022/01/26 13:38:47;;;;;;;64.70;23.23;;;4.30;99.90;;;;;;4974690;28;20269;-61
2022/01/26 13:41:28;;;;;;;66.80;26.93;;;4.30;99.90;;;;;;4974870;28;20442;-61
2022/01/26 13:44:31;;;;;;;65.30;25.93;;;4.30;99.90;;;;;;4975607;28;20210;-60
2022/01/26 13:49:50;;;;;;;73.77;27.50;;;4.30;99.90;;;;;;5065906;23;20218;-61
2022/01/26 13:55:24;;;;;;;64.90;24.27;;;4.40;99.90;;;;;;5093755;27;20444;-59
2022/01/26 14:00:41;;;;;;;68.80;25.23;;;4.40;99.90;;;;;;5089947;27;20242;-61
2022/01/26 14:03:11;;;;;;;68.37;26.10;;;4.40;99.90;;;;;;5107003;27;20948;-60
2022/01/26 14:05:38;;;;;;;67.97;25.57;;;4.40;99.90;;;;;;5087216;28;21154;-60
2022/01/26 14:08:06;;;;;;;71.10;26.23;;;4.40;99.90;;;;;;5106392;27;20222;-59
2022/01/26 14:10:35;;;;;;;71.57;26.60;;;4.40;99.90;;;;;;5064489;27;20995;-59
2022/01/26 14:13:02;;;;;;;72.23;26.17;;;4.40;99.90;;;;;;5097295;27;20523;-60
2022/01/26 14:15:40;;;;;;;63.73;25.43;;;4.40;99.90;;;;;;5082402;27;20236;-59
2022/01/26 14:18:32;;;;;;;64.63;25.87;;;4.50;99.90;;;;;;5092202;28;20210;-59
2022/01/26 14:21:08;;;;;;;60.27;25.60;;;4.50;99.90;;;;;;5102443;27;20215;-59
2022/01/26 14:23:57;;;;;;;58.83;25.60;;;4.50;99.90;;;;;;5089048;27;20230;-60
2022/01/26 14:26:30;;;;;;;67.87;26.77;;;4.50;99.90;;;;;;5082959;27;20322;-60
2022/01/26 14:28:58;;;;;;;67.13;25.80;;;4.50;99.90;;;;;;5077935;27;20297;-60
2022/01/26 14:31:35;;;;;;;68.83;25.73;;;4.50;99.90;;;;;;5101724;27;20280;-60
2022/01/26 14:34:45;;;;;;;57.63;24.97;;;4.50;99.90;;;;;;5090822;27;20222;-60
2022/01/26 14:51:15;;;;;;;67.07;27.23;;;4.50;99.90;;;;;;5076244;27;20679;-61
2022/01/26 15:30:05;;;;;;;58.63;23.73;;;4.60;99.90;;;;;;4992364;28;20229;-60
2022/01/26 15:35:28;;;;;;;58.33;24.07;;;4.60;99.90;;;;;;5044565;27;20231;-60
2022/01/26 15:40:53;;;;;;;61.57;24.03;;;4.60;99.90;;;;;;4983264;28;21187;-60
2022/01/26 15:49:07;;;;;;;54.13;23.20;;;4.60;99.90;;;;;;4975338;28;20550;-58